Time;durP1;ratioP1;P1;durP2;ratioP2;P2;SDS_P1;SDS_P2;PMS_P1;PMS_P2;Temp;Humidity;BMP_temperature;BMP_pressure;BME280_temperature;BME280_humidity;BME280_pressure;Samples;Min_cycle;Max_cycle;Signal;HPM_P1;HPM_P2
2023/05/12 00:02:18;;;;;;;40.85;26.52;;;12.90;99.90;;;;;;4993661;28;20027;-74
2023/05/12 00:04:43;;;;;;;35.58;25.27;;;12.90;99.90;;;;;;4994541;28;20038;-74
2023/05/12 00:07:09;;;;;;;45.90;27.95;;;12.90;99.90;;;;;;4993752;28;20039;-74
2023/05/12 00:09:35;;;;;;;42.70;27.58;;;12.90;99.90;;;;;;4976714;28;20033;-74
2023/05/12 00:12:01;;;;;;;44.83;29.02;;;12.90;99.90;;;;;;4976514;28;20038;-74
2023/05/12 00:14:26;;;;;;;39.45;26.95;;;12.90;99.90;;;;;;4993811;28;21249;-75
2023/05/12 00:16:52;;;;;;;49.15;32.70;;;12.80;99.90;;;;;;4994254;28;20132;-74
2023/05/12 00:19:19;;;;;;;51.03;31.45;;;12.80;99.90;;;;;;4993990;28;20119;-74
2023/05/12 00:21:44;;;;;;;58.45;33.17;;;12.80;99.90;;;;;;4993630;28;20037;-75
2023/05/12 00:24:10;;;;;;;49.78;33.53;;;12.80;99.90;;;;;;4994334;28;20015;-73
2023/05/12 00:26:36;;;;;;;61.08;32.83;;;12.80;99.90;;;;;;4993142;28;20042;-74
2023/05/12 00:29:01;;;;;;;52.10;33.50;;;12.70;99.90;;;;;;4993501;28;20041;-74
2023/05/12 00:31:29;;;;;;;62.60;36.28;;;12.70;99.90;;;;;;4976269;28;20023;-76
2023/05/12 00:33:55;;;;;;;62.35;35.15;;;12.70;99.90;;;;;;4993180;28;20023;-74
2023/05/12 00:36:20;;;;;;;51.17;33.50;;;12.70;99.90;;;;;;4976260;28;20026;-74
2023/05/12 00:38:46;;;;;;;57.25;33.40;;;12.70;99.90;;;;;;4994103;28;20686;-75
2023/05/12 00:41:12;;;;;;;68.43;36.88;;;12.70;99.90;;;;;;4993357;28;20061;-74
2023/05/12 00:43:37;;;;;;;57.88;36.08;;;12.60;99.90;;;;;;4993597;28;20031;-74
2023/05/12 00:46:05;;;;;;;62.30;36.45;;;12.60;99.90;;;;;;4975828;28;20027;-74
2023/05/12 00:48:31;;;;;;;61.55;35.05;;;12.60;99.90;;;;;;4975465;28;20053;-75
2023/05/12 00:50:58;;;;;;;64.15;37.50;;;12.60;99.90;;;;;;4992977;28;20073;-74
2023/05/12 00:53:24;;;;;;;51.95;33.65;;;12.60;99.90;;;;;;4993390;28;20029;-74
2023/05/12 00:55:50;;;;;;;56.63;34.85;;;12.60;99.90;;;;;;4992713;28;20403;-74
2023/05/12 00:58:15;;;;;;;58.63;36.42;;;12.50;99.90;;;;;;4993499;28;20018;-74
2023/05/12 01:00:41;;;;;;;54.63;35.92;;;12.50;99.90;;;;;;4975674;28;20026;-73
2023/05/12 01:03:07;;;;;;;58.85;36.13;;;12.50;99.90;;;;;;4992728;28;20111;-73
2023/05/12 01:05:55;;;;;;;56.05;34.90;;;12.50;99.90;;;;;;4975619;28;20054;-74
2023/05/12 01:08:22;;;;;;;60.28;35.63;;;12.40;99.90;;;;;;4993091;28;20715;-74
2023/05/12 01:10:47;;;;;;;54.35;36.47;;;12.40;99.90;;;;;;4992655;28;20026;-74
2023/05/12 01:13:13;;;;;;;63.17;36.28;;;12.40;99.90;;;;;;4974546;28;20132;-74
2023/05/12 01:15:44;;;;;;;56.40;35.08;;;12.20;99.90;;;;;;4993321;28;20054;-73
2023/05/12 01:18:11;;;;;;;56.83;35.10;;;12.30;99.90;;;;;;4992157;28;20027;-74
2023/05/12 01:20:38;;;;;;;59.38;37.92;;;12.30;99.90;;;;;;4975345;28;20041;-73
2023/05/12 01:23:05;;;;;;;58.35;36.97;;;12.20;99.90;;;;;;4975062;28;20107;-75
2023/05/12 01:25:33;;;;;;;56.10;36.30;;;12.30;99.90;;;;;;4974524;28;20038;-75
2023/05/12 01:27:59;;;;;;;67.20;36.85;;;12.30;99.90;;;;;;4974834;28;20510;-75
2023/05/12 01:30:25;;;;;;;63.80;38.30;;;12.30;99.90;;;;;;4975218;28;20038;-75
2023/05/12 01:32:51;;;;;;;71.60;40.30;;;12.20;99.90;;;;;;4975214;28;20026;-75
2023/05/12 01:35:17;;;;;;;63.10;38.53;;;12.20;99.90;;;;;;4993087;28;20026;-74
2023/05/12 01:37:43;;;;;;;70.40;40.70;;;12.20;99.90;;;;;;4991988;28;20050;-75
2023/05/12 01:40:09;;;;;;;76.85;42.95;;;12.10;99.90;;;;;;4974900;28;20026;-74
2023/05/12 01:42:34;;;;;;;75.78;40.90;;;12.20;99.90;;;;;;4974898;28;20368;-74
2023/05/12 01:45:00;;;;;;;101.05;43.97;;;12.20;99.90;;;;;;4974681;28;20022;-77
2023/05/12 01:47:25;;;;;;;77.75;41.33;;;12.10;99.90;;;;;;4974813;28;20046;-75
2023/05/12 01:49:53;;;;;;;65.18;40.15;;;12.10;99.90;;;;;;4974889;28;20023;-75
2023/05/12 01:52:19;;;;;;;75.47;42.63;;;12.10;99.90;;;;;;4992110;28;20038;-75
2023/05/12 01:54:44;;;;;;;83.63;45.22;;;12.10;99.90;;;;;;4992776;28;20495;-73
2023/05/12 01:57:10;;;;;;;73.75;42.05;;;12.10;99.90;;;;;;4991683;28;20110;-74
2023/05/12 01:59:36;;;;;;;80.10;44.20;;;12.10;99.90;;;;;;4974448;28;20046;-74
2023/05/12 02:02:01;;;;;;;77.20;42.90;;;12.10;99.90;;;;;;4974751;28;20023;-75
2023/05/12 02:04:27;;;;;;;85.65;46.60;;;12.10;99.90;;;;;;4974703;28;20046;-74
2023/05/12 02:06:52;;;;;;;84.28;45.17;;;12.20;99.90;;;;;;4990964;28;20030;-76
2023/05/12 02:09:18;;;;;;;90.15;47.08;;;12.10;99.90;;;;;;4974499;28;20048;-75
2023/05/12 02:11:43;;;;;;;87.57;47.65;;;12.10;99.90;;;;;;4991896;28;20561;-74
2023/05/12 02:14:09;;;;;;;94.95;48.75;;;12.20;99.90;;;;;;4974347;28;20023;-74
2023/05/12 02:16:35;;;;;;;102.97;52.08;;;12.20;99.90;;;;;;4974267;28;20491;-74
2023/05/12 02:19:00;;;;;;;101.28;47.92;;;12.20;99.90;;;;;;4974411;28;20061;-74
2023/05/12 02:21:26;;;;;;;100.72;51.78;;;12.20;99.90;;;;;;4990968;28;20027;-74
2023/05/12 02:23:52;;;;;;;107.28;54.53;;;12.20;99.90;;;;;;4974687;28;20073;-75
2023/05/12 02:26:18;;;;;;;116.22;55.58;;;12.40;99.90;;;;;;4974557;28;20417;-74
2023/05/12 02:28:44;;;;;;;101.32;52.58;;;12.30;99.90;;;;;;4973563;28;20567;-75
2023/05/12 02:31:09;;;;;;;125.28;58.15;;;12.30;99.90;;;;;;4992090;28;20030;-74
2023/05/12 02:33:35;;;;;;;105.72;53.40;;;12.30;99.90;;;;;;4991598;28;20046;-74
2023/05/12 02:36:01;;;;;;;127.53;56.95;;;12.30;99.90;;;;;;4974137;28;20069;-75
2023/05/12 02:38:26;;;;;;;125.57;55.67;;;12.30;99.90;;;;;;4974457;28;20058;-75
2023/05/12 02:40:52;;;;;;;111.10;55.55;;;12.30;99.90;;;;;;4990699;28;20022;-75
2023/05/12 02:43:18;;;;;;;107.95;54.55;;;12.30;99.90;;;;;;4992028;28;20029;-75
2023/05/12 02:45:43;;;;;;;107.90;53.33;;;12.40;99.90;;;;;;4991784;28;20095;-75
2023/05/12 02:48:09;;;;;;;116.50;54.40;;;12.40;99.90;;;;;;4991048;28;20077;-74
2023/05/12 02:50:34;;;;;;;120.00;58.28;;;12.40;99.90;;;;;;4974305;28;20034;-75
2023/05/12 02:53:00;;;;;;;107.68;52.80;;;12.40;99.90;;;;;;4973875;28;20027;-75
2023/05/12 02:55:26;;;;;;;129.40;57.10;;;12.40;99.90;;;;;;4991654;28;20083;-76
2023/05/12 02:57:52;;;;;;;114.82;57.38;;;12.40;99.90;;;;;;4974621;28;20026;-74
2023/05/12 03:00:18;;;;;;;106.38;56.38;;;12.40;99.90;;;;;;4991576;28;20079;-75
2023/05/12 03:02:43;;;;;;;114.25;57.25;;;12.40;99.90;;;;;;4973920;28;20022;-75
2023/05/12 03:05:09;;;;;;;107.32;57.83;;;12.40;99.90;;;;;;4973805;28;20047;-75
2023/05/12 03:07:34;;;;;;;104.57;54.85;;;12.50;99.90;;;;;;4991628;28;20042;-76
2023/05/12 03:10:00;;;;;;;134.18;58.67;;;12.40;99.90;;;;;;4991011;28;20029;-76
2023/05/12 03:12:29;;;;;;;113.57;57.22;;;12.40;99.90;;;;;;4970698;28;20059;-74
2023/05/12 03:14:55;;;;;;;116.50;57.75;;;12.40;99.90;;;;;;4972375;28;20023;-74
2023/05/12 03:17:21;;;;;;;141.93;59.75;;;12.40;99.90;;;;;;4969951;28;20038;-76
2023/05/12 03:19:47;;;;;;;119.18;57.40;;;12.40;99.90;;;;;;4970935;28;20058;-75
2023/05/12 03:22:13;;;;;;;138.77;61.75;;;12.40;99.90;;;;;;4972042;28;20023;-74
2023/05/12 03:24:39;;;;;;;124.32;60.83;;;12.40;99.90;;;;;;4971588;28;20592;-74
2023/05/12 03:27:04;;;;;;;147.85;65.90;;;12.40;99.90;;;;;;4971976;28;20054;-75
2023/05/12 03:29:30;;;;;;;132.05;63.90;;;12.40;99.90;;;;;;4971878;28;20031;-74
2023/05/12 03:31:56;;;;;;;132.98;61.67;;;12.40;99.90;;;;;;4971477;28;20019;-75
2023/05/12 03:34:21;;;;;;;157.68;66.72;;;12.40;99.90;;;;;;4972315;28;20491;-74
2023/05/12 03:36:47;;;;;;;118.03;61.13;;;12.40;99.90;;;;;;4972087;28;20024;-75
2023/05/12 03:39:13;;;;;;;151.38;68.55;;;12.40;99.90;;;;;;4975200;28;20042;-74
2023/05/12 03:41:38;;;;;;;154.73;66.38;;;12.40;99.90;;;;;;4974328;28;20023;-75
2023/05/12 03:44:05;;;;;;;127.78;64.05;;;12.40;99.90;;;;;;4975499;28;20077;-75
2023/05/12 03:46:31;;;;;;;136.23;64.25;;;12.40;99.90;;;;;;4973964;28;20054;-76
2023/05/12 03:48:57;;;;;;;108.78;57.70;;;12.40;99.90;;;;;;4973423;28;20109;-74
2023/05/12 03:51:23;;;;;;;120.63;63.13;;;12.40;99.90;;;;;;4975435;28;20015;-75
2023/05/12 03:53:49;;;;;;;122.40;63.22;;;12.40;99.90;;;;;;4973884;28;20073;-75
2023/05/12 03:56:15;;;;;;;136.40;63.67;;;12.50;99.90;;;;;;4975316;28;20027;-75
2023/05/12 03:58:41;;;;;;;133.63;60.85;;;12.40;99.90;;;;;;4973959;28;20026;-74
2023/05/12 04:01:07;;;;;;;132.40;62.05;;;12.40;99.90;;;;;;4975038;28;20035;-74
2023/05/12 04:03:33;;;;;;;114.10;60.22;;;12.40;99.90;;;;;;4972532;28;20027;-74
2023/05/12 04:06:00;;;;;;;124.22;61.85;;;12.40;99.90;;;;;;4974931;28;20593;-74
2023/05/12 04:08:26;;;;;;;127.18;65.18;;;12.50;99.90;;;;;;4973651;28;20046;-73
2023/05/12 04:10:57;;;;;;;117.22;61.75;;;12.40;99.90;;;;;;4973376;28;20457;-75
2023/05/12 04:13:24;;;;;;;113.25;58.95;;;12.40;99.90;;;;;;4988870;28;20039;-74
2023/05/12 04:15:50;;;;;;;97.18;53.60;;;12.40;99.90;;;;;;4976411;28;20070;-74
2023/05/12 04:18:16;;;;;;;118.85;60.10;;;12.50;99.90;;;;;;4976545;28;20073;-74
2023/05/12 04:20:43;;;;;;;120.03;57.33;;;12.50;99.90;;;;;;4975477;28;20034;-74
2023/05/12 04:23:08;;;;;;;116.10;58.50;;;12.50;99.90;;;;;;4993867;28;20130;-74
2023/05/12 04:25:39;;;;;;;105.32;55.75;;;12.50;99.90;;;;;;4994229;28;20034;-74
2023/05/12 04:28:05;;;;;;;110.47;56.35;;;12.40;99.90;;;;;;4976286;28;20050;-73
2023/05/12 04:30:31;;;;;;;95.10;53.17;;;12.50;99.90;;;;;;4993537;28;20139;-73
2023/05/12 04:32:56;;;;;;;108.03;54.65;;;12.50;99.90;;;;;;4993974;28;20026;-74
2023/05/12 04:35:22;;;;;;;105.50;55.20;;;12.50;99.90;;;;;;4994051;28;20026;-74
2023/05/12 04:37:48;;;;;;;99.28;52.50;;;12.50;99.90;;;;;;4976369;28;20045;-73
2023/05/12 04:40:13;;;;;;;96.35;51.15;;;12.50;99.90;;;;;;4975883;28;20759;-73
2023/05/12 04:42:39;;;;;;;98.10;50.17;;;12.50;99.90;;;;;;4993861;28;20022;-73
2023/05/12 04:45:06;;;;;;;87.43;49.38;;;12.50;99.90;;;;;;4976300;28;20030;-74
2023/05/12 04:47:31;;;;;;;96.50;51.65;;;12.50;99.90;;;;;;4975295;28;20392;-73
2023/05/12 04:49:57;;;;;;;101.47;50.33;;;12.50;99.90;;;;;;4974726;28;20071;-75
2023/05/12 04:52:23;;;;;;;93.05;50.88;;;12.50;99.90;;;;;;4993603;28;20019;-73
2023/05/12 04:54:49;;;;;;;90.60;50.40;;;12.50;99.90;;;;;;4976100;28;20058;-74
2023/05/12 04:57:15;;;;;;;90.65;50.40;;;12.50;99.90;;;;;;4975504;28;20058;-73
2023/05/12 04:59:41;;;;;;;93.03;50.13;;;12.60;99.90;;;;;;4992957;28;20023;-74
2023/05/12 05:02:07;;;;;;;90.45;49.10;;;12.60;99.90;;;;;;4993135;28;20026;-73
2023/05/12 05:04:33;;;;;;;94.25;52.00;;;12.60;99.90;;;;;;4976047;28;20111;-73
2023/05/12 05:06:59;;;;;;;92.90;51.42;;;12.70;99.90;;;;;;4992816;28;20023;-73
2023/05/12 05:09:24;;;;;;;86.43;50.45;;;12.60;99.90;;;;;;4991795;28;20031;-75
2023/05/12 05:11:50;;;;;;;87.05;48.03;;;12.70;99.90;;;;;;4975670;28;20042;-73
2023/05/12 05:14:15;;;;;;;91.75;51.45;;;12.60;99.90;;;;;;4993317;28;20090;-74
2023/05/12 05:16:41;;;;;;;89.30;50.60;;;12.70;99.90;;;;;;4992626;28;20058;-74
2023/05/12 05:19:06;;;;;;;94.57;50.30;;;12.60;99.90;;;;;;4993483;28;20395;-73
2023/05/12 05:21:33;;;;;;;85.75;48.75;;;12.70;99.90;;;;;;4992467;28;20038;-75
2023/05/12 05:23:59;;;;;;;91.45;49.15;;;12.80;99.90;;;;;;4975109;28;20022;-73
2023/05/12 05:26:24;;;;;;;75.47;44.92;;;12.80;99.90;;;;;;4989786;28;20122;-74
2023/05/12 05:28:53;;;;;;;78.68;47.20;;;12.80;99.90;;;;;;4991383;28;20052;-73
2023/05/12 05:31:20;;;;;;;65.95;40.72;;;12.80;99.90;;;;;;4992943;28;20033;-74
2023/05/12 05:33:46;;;;;;;76.72;43.45;;;12.90;99.90;;;;;;4975113;28;20038;-73
2023/05/12 05:36:12;;;;;;;86.57;47.45;;;12.90;99.90;;;;;;4992833;28;20427;-73
2023/05/12 05:38:38;;;;;;;74.25;45.05;;;12.90;99.90;;;;;;4992734;28;20113;-74
2023/05/12 05:41:04;;;;;;;77.15;46.53;;;12.90;99.90;;;;;;4991356;28;20034;-74
2023/05/12 05:43:30;;;;;;;85.45;48.65;;;13.00;99.90;;;;;;4974463;28;20033;-74
2023/05/12 05:45:56;;;;;;;74.60;44.22;;;13.00;99.90;;;;;;4993246;28;20109;-76
2023/05/12 05:48:23;;;;;;;72.55;43.20;;;13.00;99.90;;;;;;4974560;28;20042;-74
2023/05/12 05:50:50;;;;;;;64.15;40.05;;;13.10;99.90;;;;;;4992316;28;20023;-73
2023/05/12 05:53:17;;;;;;;73.57;44.33;;;13.10;99.90;;;;;;4971886;28;20030;-73
2023/05/12 05:55:43;;;;;;;68.30;40.35;;;13.10;99.90;;;;;;4974739;28;20029;-74
2023/05/12 05:58:08;;;;;;;66.55;41.05;;;13.10;99.90;;;;;;4974816;28;20118;-73
2023/05/12 06:00:34;;;;;;;67.63;41.67;;;13.20;99.90;;;;;;4969571;28;20029;-75
2023/05/12 06:03:00;;;;;;;71.65;41.10;;;13.20;99.90;;;;;;4973416;28;20041;-73
2023/05/12 06:05:26;;;;;;;69.07;41.75;;;13.20;99.90;;;;;;4988611;28;20456;-74
2023/05/12 06:07:51;;;;;;;66.53;41.30;;;13.30;99.90;;;;;;4974072;28;20043;-74
2023/05/12 06:10:17;;;;;;;58.45;38.60;;;13.30;99.90;;;;;;4988459;28;20026;-74
2023/05/12 06:12:43;;;;;;;66.38;40.50;;;13.30;99.90;;;;;;4992470;28;20150;-74
2023/05/12 06:15:09;;;;;;;62.65;38.92;;;13.30;99.90;;;;;;4992035;28;20151;-73
2023/05/12 06:17:34;;;;;;;68.07;41.95;;;13.40;99.90;;;;;;4975048;28;20027;-74
2023/05/12 06:20:00;;;;;;;67.70;41.38;;;13.50;99.90;;;;;;4974715;28;20026;-75
2023/05/12 06:22:25;;;;;;;68.18;41.88;;;13.50;99.90;;;;;;4992500;28;20089;-75
2023/05/12 06:24:51;;;;;;;69.43;42.72;;;13.60;99.90;;;;;;4992866;28;20033;-74
2023/05/12 06:27:16;;;;;;;61.72;38.47;;;13.60;99.90;;;;;;4990563;28;20039;-73
2023/05/12 06:29:42;;;;;;;53.47;35.55;;;13.70;99.90;;;;;;4992194;28;20474;-75
2023/05/12 06:32:08;;;;;;;56.40;38.97;;;13.80;99.90;;;;;;4972972;28;20098;-74
2023/05/12 06:34:33;;;;;;;61.08;39.63;;;13.90;99.90;;;;;;4991978;28;20022;-74
2023/05/12 06:36:59;;;;;;;63.83;39.20;;;14.00;99.90;;;;;;4974786;28;20027;-74
2023/05/12 06:39:25;;;;;;;51.85;35.83;;;14.00;99.90;;;;;;4992551;28;20058;-74
2023/05/12 06:41:50;;;;;;;57.13;37.72;;;14.00;99.90;;;;;;4974962;28;20069;-73
2023/05/12 06:44:16;;;;;;;48.50;32.97;;;14.20;99.90;;;;;;4992164;28;20041;-73
2023/05/12 06:46:42;;;;;;;46.15;33.00;;;14.20;99.90;;;;;;4988999;28;20472;-73
2023/05/12 06:49:08;;;;;;;38.88;27.63;;;14.30;99.90;;;;;;4991823;28;20050;-74
2023/05/12 06:51:34;;;;;;;44.75;30.23;;;14.30;99.90;;;;;;4975405;28;20392;-73
2023/05/12 06:54:00;;;;;;;39.63;27.45;;;14.50;99.90;;;;;;4992136;28;20019;-74
2023/05/12 06:56:28;;;;;;;39.45;29.20;;;14.50;99.90;;;;;;4973921;28;20034;-74
2023/05/12 06:59:01;;;;;;;38.28;28.55;;;14.60;99.90;;;;;;4990818;28;20031;-73
2023/05/12 07:01:28;;;;;;;40.53;30.13;;;14.70;99.90;;;;;;4974414;28;20117;-73
2023/05/12 07:03:53;;;;;;;34.97;25.92;;;14.90;99.90;;;;;;4992144;28;20315;-74
2023/05/12 07:06:19;;;;;;;32.92;24.90;;;15.00;99.90;;;;;;4992523;28;20026;-74
2023/05/12 07:08:45;;;;;;;37.80;24.95;;;15.10;99.90;;;;;;4974817;28;20074;-74
2023/05/12 07:11:11;;;;;;;34.63;25.33;;;15.30;99.90;;;;;;4991918;28;20039;-74
2023/05/12 07:13:37;;;;;;;34.53;23.95;;;15.30;99.90;;;;;;4977913;28;20053;-75
2023/05/12 07:16:03;;;;;;;32.53;23.35;;;15.30;99.90;;;;;;4977661;28;20113;-76
2023/05/12 07:18:29;;;;;;;32.63;22.23;;;15.40;99.90;;;;;;4995824;28;20041;-77
2023/05/12 07:20:54;;;;;;;33.58;21.73;;;15.40;99.90;;;;;;4978665;28;20038;-77
2023/05/12 07:23:20;;;;;;;27.30;21.58;;;15.50;99.90;;;;;;4995362;28;20050;-76
2023/05/12 07:25:46;;;;;;;32.92;24.02;;;15.50;99.90;;;;;;4993421;28;20601;-76
2023/05/12 07:28:11;;;;;;;27.05;18.48;;;15.60;99.90;;;;;;4977652;28;20379;-76
2023/05/12 07:30:37;;;;;;;24.73;19.25;;;15.50;99.90;;;;;;4977438;28;20046;-78
2023/05/12 07:33:03;;;;;;;22.65;16.77;;;15.60;99.90;;;;;;4975151;28;20022;-75
2023/05/12 07:35:29;;;;;;;22.52;16.85;;;15.70;99.90;;;;;;4994408;28;20019;-76
2023/05/12 07:37:55;;;;;;;28.35;19.48;;;15.70;99.90;;;;;;4992350;28;20022;-76
2023/05/12 07:40:21;;;;;;;20.50;15.90;;;15.80;99.90;;;;;;4995470;28;20026;-75
2023/05/12 07:42:46;;;;;;;25.88;18.98;;;15.90;99.90;;;;;;4977060;28;20110;-76
2023/05/12 07:45:12;;;;;;;25.65;18.10;;;15.90;99.90;;;;;;4995108;28;20042;-75
2023/05/12 07:47:37;;;;;;;24.65;18.60;;;16.00;99.90;;;;;;4977385;28;20039;-73
2023/05/12 07:50:04;;;;;;;27.98;17.77;;;16.20;99.90;;;;;;4995259;28;21307;-73
2023/05/12 07:52:29;;;;;;;22.55;16.95;;;16.20;99.90;;;;;;4976994;28;20054;-74
2023/05/12 07:54:56;;;;;;;19.35;16.30;;;16.30;99.90;;;;;;4978211;28;20026;-74
2023/05/12 07:57:22;;;;;;;21.75;17.05;;;16.40;99.90;;;;;;4975031;28;20039;-75
2023/05/12 07:59:48;;;;;;;19.55;15.80;;;16.50;99.90;;;;;;4977845;28;20026;-73
2023/05/12 08:02:15;;;;;;;17.73;13.85;;;16.50;99.90;;;;;;4977729;28;20027;-75
2023/05/12 08:04:41;;;;;;;20.58;15.40;;;16.70;99.90;;;;;;4977119;28;20077;-75
2023/05/12 08:07:07;;;;;;;18.23;15.55;;;16.70;99.90;;;;;;4975532;28;20023;-74
2023/05/12 08:09:33;;;;;;;20.70;16.05;;;16.90;99.90;;;;;;4973306;28;20023;-73
2023/05/12 08:11:58;;;;;;;20.23;14.93;;;16.90;99.90;;;;;;4977284;28;20135;-74
2023/05/12 08:14:24;;;;;;;22.08;16.25;;;17.00;99.90;;;;;;4994902;28;20022;-74
2023/05/12 08:16:50;;;;;;;18.15;14.25;;;17.20;99.90;;;;;;4977828;28;20038;-72
2023/05/12 08:19:16;;;;;;;21.08;14.23;;;17.20;99.90;;;;;;4993311;28;20019;-73
2023/05/12 08:21:41;;;;;;;19.58;13.90;;;17.30;99.90;;;;;;4993801;28;20102;-73
2023/05/12 08:24:07;;;;;;;16.77;13.05;;;17.40;99.90;;;;;;4994527;28;20069;-74
2023/05/12 08:26:33;;;;;;;16.58;11.82;;;17.50;99.90;;;;;;4994539;28;20033;-69
2023/05/12 08:28:58;;;;;;;13.68;10.82;;;17.60;99.90;;;;;;4977321;28;20074;-71
2023/05/12 08:31:24;;;;;;;16.42;11.20;;;17.60;99.90;;;;;;4994474;28;20221;-72
2023/05/12 08:33:50;;;;;;;16.50;10.90;;;17.60;99.90;;;;;;4993720;28;20023;-73
2023/05/12 08:36:15;;;;;;;17.85;11.63;;;17.70;99.90;;;;;;4994905;28;20077;-74
2023/05/12 08:38:41;;;;;;;13.13;10.35;;;17.70;99.90;;;;;;4994274;28;20046;-74
2023/05/12 08:41:27;;;;;;;18.75;11.05;;;17.80;99.90;;;;;;4994401;28;20052;-75
2023/05/12 08:43:54;;;;;;;15.93;9.70;;;17.90;99.90;;;;;;4993446;28;20054;-75
2023/05/12 08:46:21;;;;;;;14.77;10.02;;;18.00;99.90;;;;;;4974594;28;20042;-75
2023/05/12 08:48:49;;;;;;;12.70;9.75;;;18.10;99.90;;;;;;4974979;28;20077;-75
2023/05/12 08:51:17;;;;;;;15.40;10.25;;;18.10;99.90;;;;;;4990872;28;20042;-74
2023/05/12 08:53:45;;;;;;;11.50;7.65;;;18.10;99.90;;;;;;4991097;28;20034;-74
2023/05/12 08:56:13;;;;;;;10.48;8.00;;;18.20;99.90;;;;;;4992355;28;20035;-76
2023/05/12 08:58:38;;;;;;;12.85;8.57;;;18.20;99.90;;;;;;4976351;28;20058;-75
2023/05/12 09:01:05;;;;;;;13.50;9.43;;;18.40;99.90;;;;;;4994030;28;20022;-75
2023/05/12 09:03:32;;;;;;;9.80;8.10;;;18.40;99.90;;;;;;4976933;28;20463;-75
2023/05/12 09:05:58;;;;;;;17.52;9.32;;;18.40;99.90;;;;;;4975940;28;20019;-75
2023/05/12 09:08:25;;;;;;;15.65;10.45;;;18.60;99.90;;;;;;4976064;28;20044;-75
2023/05/12 09:10:55;;;;;;;13.95;9.40;;;18.70;99.90;;;;;;4991201;28;20045;-76
2023/05/12 09:13:59;;;;;;;21.08;9.73;;;18.70;99.90;;;;;;4993047;28;20488;-74
2023/05/12 09:16:28;;;;;;;13.27;10.13;;;18.70;99.90;;;;;;4991288;28;20027;-74
2023/05/12 09:18:59;;;;;;;18.08;9.68;;;18.80;99.90;;;;;;4989779;28;20027;-75
2023/05/12 09:21:25;;;;;;;15.45;10.57;;;18.90;99.90;;;;;;4992406;28;20027;-74
2023/05/12 09:23:58;;;;;;;23.63;11.20;;;18.90;99.90;;;;;;4992615;28;20034;-74
2023/05/12 09:26:25;;;;;;;18.10;10.60;;;18.90;99.90;;;;;;4993121;28;20037;-74
2023/05/12 09:29:10;;;;;;;11.93;10.40;;;18.90;99.90;;;;;;4975552;28;20047;-74
2023/05/12 09:31:36;;;;;;;16.67;11.02;;;18.80;99.90;;;;;;4975503;28;20094;-75
2023/05/12 09:34:09;;;;;;;15.18;10.32;;;18.60;99.90;;;;;;4974875;28;20035;-75
2023/05/12 09:36:34;;;;;;;12.80;10.00;;;18.50;99.90;;;;;;4991295;28;20026;-75
2023/05/12 09:39:05;;;;;;;11.40;9.02;;;18.60;99.90;;;;;;4976402;28;20026;-74
2023/05/12 09:41:44;;;;;;;13.27;8.32;;;18.60;99.90;;;;;;4992552;28;20086;-74
2023/05/12 09:44:15;;;;;;;14.15;8.60;;;18.70;99.90;;;;;;4976082;28;20026;-74
2023/05/12 09:46:41;;;;;;;13.60;8.75;;;18.80;99.90;;;;;;4991794;28;20041;-75
2023/05/12 09:49:07;;;;;;;15.35;8.82;;;18.80;99.90;;;;;;4990849;28;20098;-74
2023/05/12 09:51:33;;;;;;;13.60;9.05;;;19.00;99.90;;;;;;4972350;28;20438;-74
2023/05/12 09:53:59;;;;;;;14.20;9.30;;;19.10;99.90;;;;;;4990832;28;20030;-76
2023/05/12 09:56:27;;;;;;;13.55;7.93;;;19.20;99.90;;;;;;4971104;28;20099;-75
2023/05/12 09:58:55;;;;;;;13.43;8.85;;;19.30;99.90;;;;;;4991459;28;20019;-74
2023/05/12 10:01:22;;;;;;;13.32;9.02;;;19.50;99.90;;;;;;4989715;28;20038;-74
2023/05/12 10:03:54;;;;;;;13.73;8.75;;;19.60;99.90;;;;;;4970535;28;20027;-74
2023/05/12 10:06:33;;;;;;;12.65;8.70;;;19.80;99.90;;;;;;4988050;28;20023;-74
2023/05/12 10:09:15;;;;;;;8.98;7.50;;;19.90;99.90;;;;;;4991390;28;20037;-74
2023/05/12 10:11:41;;;;;;;10.23;6.97;;;20.10;99.90;;;;;;4987938;28;20050;-73
2023/05/12 10:14:08;;;;;;;13.63;8.13;;;20.20;99.90;;;;;;4990124;28;20037;-72
2023/05/12 10:16:35;;;;;;;12.23;8.05;;;20.30;99.90;;;;;;4992088;28;20112;-73
2023/05/12 10:19:03;;;;;;;15.43;8.60;;;20.40;99.90;;;;;;4975158;28;20073;-71
2023/05/12 10:21:29;;;;;;;17.70;9.00;;;20.50;99.90;;;;;;4991559;28;20045;-72
2023/05/12 10:23:56;;;;;;;15.30;9.00;;;20.60;99.90;;;;;;4985296;28;20034;-71
2023/05/12 10:26:23;;;;;;;10.05;7.05;;;20.60;99.90;;;;;;4991729;28;20033;-72
2023/05/12 10:28:50;;;;;;;13.98;7.03;;;20.70;99.90;;;;;;4974535;28;20041;-73
2023/05/12 10:31:15;;;;;;;9.70;7.15;;;20.80;99.90;;;;;;4974292;28;20031;-70
2023/05/12 10:33:41;;;;;;;12.25;8.27;;;20.90;99.90;;;;;;4990858;28;20029;-74
2023/05/12 10:36:18;;;;;;;17.75;9.02;;;21.10;99.90;;;;;;4991445;28;20026;-71
2023/05/12 10:38:46;;;;;;;12.45;8.80;;;21.10;99.90;;;;;;4974733;28;20562;-71
2023/05/12 10:41:12;;;;;;;11.85;8.32;;;21.20;99.90;;;;;;4973305;28;20490;-70
2023/05/12 10:43:43;;;;;;;12.75;7.50;;;21.30;99.90;;;;;;4990577;28;20030;-70
2023/05/12 10:46:19;;;;;;;12.68;7.22;;;21.50;99.90;;;;;;4973313;28;20030;-71
2023/05/12 10:49:08;;;;;;;14.88;7.80;;;21.60;99.90;;;;;;4995891;28;20097;-70
2023/05/12 10:51:48;;;;;;;14.00;7.70;;;21.70;99.90;;;;;;4976833;28;20058;-72
2023/05/12 10:54:24;;;;;;;11.73;7.30;;;21.60;99.90;;;;;;4995422;28;20066;-71
2023/05/12 10:56:51;;;;;;;11.10;7.35;;;21.60;99.90;;;;;;4994982;28;20037;-71
2023/05/12 10:59:22;;;;;;;9.73;7.10;;;21.60;99.90;;;;;;4978302;28;20037;-69
2023/05/12 11:02:00;;;;;;;8.18;6.80;;;21.80;99.90;;;;;;4978409;28;20034;-72
2023/05/12 11:04:54;;;;;;;10.27;7.35;;;21.90;99.90;;;;;;4995630;28;20089;-73
2023/05/12 11:07:21;;;;;;;9.80;7.38;;;21.90;99.90;;;;;;4993170;28;20118;-73
2023/05/12 11:09:47;;;;;;;14.73;7.47;;;22.00;99.90;;;;;;4977651;28;20022;-70
2023/05/12 11:12:13;;;;;;;14.80;7.90;;;22.10;99.90;;;;;;4978254;28;20124;-71
2023/05/12 11:14:41;;;;;;;10.57;6.68;;;22.10;99.90;;;;;;4995123;28;20074;-72
2023/05/12 11:17:08;;;;;;;8.25;6.65;;;22.30;99.90;;;;;;4994582;28;20037;-70
2023/05/12 11:19:34;;;;;;;13.25;7.03;;;22.40;99.90;;;;;;4994905;28;20019;-72
2023/05/12 11:22:11;;;;;;;8.23;5.43;;;22.50;99.90;;;;;;4977698;28;20035;-74
2023/05/12 11:24:38;;;;;;;12.85;5.80;;;22.70;99.90;;;;;;4995066;28;20046;-71
2023/05/12 11:27:04;;;;;;;9.05;5.00;;;22.70;99.90;;;;;;4994254;28;20023;-72
2023/05/12 11:29:30;;;;;;;9.07;5.63;;;22.90;99.90;;;;;;4995049;28;20026;-74
2023/05/12 11:31:57;;;;;;;7.57;5.25;;;22.90;99.90;;;;;;4994530;28;20026;-72
2023/05/12 11:34:24;;;;;;;5.95;4.63;;;22.70;99.90;;;;;;4977714;28;20027;-71
2023/05/12 11:36:51;;;;;;;8.57;5.03;;;22.70;99.90;;;;;;4994179;28;20027;-74
2023/05/12 11:39:19;;;;;;;7.03;4.75;;;22.90;99.90;;;;;;4977428;28;20030;-71
2023/05/12 11:41:45;;;;;;;11.00;5.95;;;23.00;99.90;;;;;;4995187;28;20057;-71
2023/05/12 11:44:16;;;;;;;6.95;5.15;;;23.10;99.90;;;;;;4993608;28;20070;-73
2023/05/12 11:46:56;;;;;;;7.45;5.10;;;23.20;99.90;;;;;;4994887;28;20030;-74
2023/05/12 11:49:22;;;;;;;10.75;4.70;;;23.30;99.90;;;;;;4977988;28;20034;-73
2023/05/12 11:51:50;;;;;;;8.38;4.95;;;23.30;99.90;;;;;;4977426;28;21190;-75
2023/05/12 11:54:16;;;;;;;10.05;5.00;;;23.30;99.90;;;;;;4995238;28;20018;-72
2023/05/12 11:56:53;;;;;;;12.82;4.40;;;23.20;99.90;;;;;;4995739;28;20060;-73
2023/05/12 11:59:28;;;;;;;13.55;5.03;;;23.30;99.90;;;;;;4994444;28;20093;-72
2023/05/12 12:01:54;;;;;;;10.40;4.90;;;23.50;99.90;;;;;;4994181;28;20112;-72
2023/05/12 12:04:37;;;;;;;12.65;4.70;;;23.70;99.90;;;;;;4995123;28;20019;-73
2023/05/12 12:07:06;;;;;;;9.95;5.05;;;23.90;99.90;;;;;;4976692;28;20038;-76
2023/05/12 12:09:41;;;;;;;12.23;4.72;;;23.90;99.90;;;;;;4979552;28;20066;-73
2023/05/12 12:12:10;;;;;;;6.47;4.65;;;23.80;99.90;;;;;;4994530;28;20130;-74
2023/05/12 12:14:37;;;;;;;10.68;5.15;;;23.50;99.90;;;;;;4977239;28;20098;-74
2023/05/12 12:17:03;;;;;;;7.82;5.00;;;23.30;99.90;;;;;;4977004;28;20031;-77
2023/05/12 12:19:29;;;;;;;8.27;4.65;;;23.20;99.90;;;;;;4973105;28;20121;-71
2023/05/12 12:21:56;;;;;;;7.13;4.28;;;23.10;99.90;;;;;;4994588;28;20071;-74
2023/05/12 12:24:22;;;;;;;7.88;4.28;;;23.00;99.90;;;;;;4976042;28;20026;-76
2023/05/12 12:26:48;;;;;;;7.50;4.60;;;23.10;99.90;;;;;;4977092;28;20035;-72
2023/05/12 12:29:15;;;;;;;6.22;3.90;;;23.30;99.90;;;;;;4974134;28;20030;-73